Time;durP1;ratioP1;P1;durP2;ratioP2;P2;SDS_P1;SDS_P2;PMS_P1;PMS_P2;Temp;Humidity;BMP_temperature;BMP_pressure;BME280_temperature;BME280_humidity;BME280_pressure;Samples;Min_cycle;Max_cycle;Signal;HPM_P1;HPM_P2
2022/05/16 00:02:17;;;;;;;;;;;;;;;19.53;41.15;99791.00;5382225;26;34210;-88
2022/05/16 00:04:46;;;;;;;;;;;;;;;19.37;42.29;99795.28;5382066;26;33890;-87
2022/05/16 00:07:15;;;;;;;;;;;;;;;19.46;41.45;99797.47;5388183;26;34706;-87
2022/05/16 00:09:43;;;;;;;;;;;;;;;19.45;41.95;99798.41;5383131;26;33431;-87
2022/05/16 00:12:12;;;;;;;;;;;;;;;19.53;42.29;99795.41;5381800;26;34641;-87
2022/05/16 00:14:41;;;;;;;;;;;;;;;19.29;42.87;99797.44;5381948;26;34126;-88
2022/05/16 00:17:09;;;;;;;;;;;;;;;19.44;42.70;99799.31;5381227;26;34820;-87
2022/05/16 00:19:40;;;;;;;;;;;;;;;19.44;42.20;99795.84;5388316;26;32912;-87
2022/05/16 00:22:09;;;;;;;;;;;;;;;19.43;42.55;99791.53;5382428;26;34064;-87
2022/05/16 00:24:39;;;;;;;;;;;;;;;19.44;42.26;99795.84;5381923;26;34974;-87
2022/05/16 00:27:08;;;;;;;;;;;;;;;19.39;42.76;99794.28;5381819;26;33950;-87
2022/05/16 00:29:36;;;;;;;;;;;;;;;19.32;42.91;99798.13;5382054;26;34245;-87
2022/05/16 00:32:05;;;;;;;;;;;;;;;19.30;43.13;99796.50;5363682;26;33146;-87
2022/05/16 00:34:34;;;;;;;;;;;;;;;19.39;43.09;99802.16;5387854;26;34366;-87
2022/05/16 00:37:04;;;;;;;;;;;;;;;19.29;43.47;99794.81;5382680;26;34087;-87
2022/05/16 00:39:33;;;;;;;;;;;;;;;19.16;43.67;99799.75;5382508;26;32838;-87
2022/05/16 00:42:02;;;;;;;;;;;;;;;19.16;44.41;99802.41;5362141;26;33767;-87
2022/05/16 00:44:33;;;;;;;;;;;;;;;19.33;42.92;99809.50;5381746;26;34999;-87
2022/05/16 00:47:02;;;;;;;;;;;;;;;19.13;43.80;99803.37;5367309;26;32904;-87
2022/05/16 00:49:32;;;;;;;;;;;;;;;19.24;43.84;99805.53;5382294;26;33402;-87
2022/05/16 00:52:04;;;;;;;;;;;;;;;19.26;43.14;99803.69;5382213;26;34982;-87
2022/05/16 00:54:34;;;;;;;;;;;;;;;19.25;43.37;99801.97;5382064;26;34138;-88
2022/05/16 00:57:03;;;;;;;;;;;;;;;19.26;43.11;99802.84;5381910;26;34785;-87
2022/05/16 00:59:33;;;;;;;;;;;;;;;19.15;43.65;99805.97;5387276;26;33261;-87
2022/05/16 01:04:50;;;;;;;;;;;;;;;19.22;42.93;99804.75;5382649;26;33912;-87
2022/05/16 01:07:30;;;;;;;;;;;;;;;19.30;43.46;99801.75;5358773;26;32962;-87
2022/05/16 01:10:03;;;;;;;;;;;;;;;19.16;43.70;99803.28;5380636;26;33966;-87
2022/05/16 01:12:33;;;;;;;;;;;;;;;19.21;43.50;99810.94;5382186;26;34937;-87
2022/05/16 01:15:04;;;;;;;;;;;;;;;18.97;43.35;99821.66;5383162;26;35113;-87
2022/05/16 01:17:32;;;;;;;;;;;;;;;18.11;45.76;99828.00;5387902;26;33420;-87
2022/05/16 01:20:01;;;;;;;;;;;;;;;18.83;44.08;99820.59;5382071;26;32984;-86
2022/05/16 01:22:32;;;;;;;;;;;;;;;18.91;43.92;99818.47;5382109;26;34269;-87
2022/05/16 01:25:01;;;;;;;;;;;;;;;18.68;44.56;99815.06;5381571;26;34292;-87
2022/05/16 01:27:39;;;;;;;;;;;;;;;18.95;43.69;99813.00;5382436;26;33427;-87
2022/05/16 01:30:08;;;;;;;;;;;;;;;18.96;43.51;99822.56;5387532;26;33526;-86
2022/05/16 01:32:37;;;;;;;;;;;;;;;18.89;43.96;99825.56;5381968;26;33820;-87
2022/05/16 01:35:06;;;;;;;;;;;;;;;18.81;44.09;99823.28;5382861;26;35074;-87
2022/05/16 01:40:22;;;;;;;;;;;;;;;18.80;43.93;99823.34;5381834;26;33999;-86
2022/05/16 01:42:50;;;;;;;;;;;;;;;18.86;44.25;99826.56;5381670;26;33754;-87
2022/05/16 01:45:19;;;;;;;;;;;;;;;18.84;44.41;99824.91;5387426;26;34667;-87
2022/05/16 01:47:48;;;;;;;;;;;;;;;19.05;43.90;99829.19;5381896;26;34172;-87
2022/05/16 01:50:16;;;;;;;;;;;;;;;19.12;43.89;99825.37;5381880;26;32909;-87
2022/05/16 01:52:46;;;;;;;;;;;;;;;19.05;44.11;99831.84;5382250;26;34086;-87
2022/05/16 01:55:15;;;;;;;;;;;;;;;19.09;44.31;99833.41;5381436;26;33449;-87
2022/05/16 01:57:44;;;;;;;;;;;;;;;19.27;43.57;99826.44;5386469;26;33695;-86
2022/05/16 02:00:13;;;;;;;;;;;;;;;19.38;43.43;99824.16;5380472;26;32824;-87
2022/05/16 02:02:45;;;;;;;;;;;;;;;19.30;43.71;99831.53;5381912;26;34307;-87
2022/05/16 02:05:15;;;;;;;;;;;;;;;19.14;44.07;99828.78;5381763;26;34328;-88
2022/05/16 02:07:44;;;;;;;;;;;;;;;19.37;43.09;99832.94;5381252;26;34571;-87
2022/05/16 02:10:16;;;;;;;;;;;;;;;19.38;43.32;99846.97;5386183;26;33253;-88
2022/05/16 02:12:45;;;;;;;;;;;;;;;19.38;43.45;99849.63;5388056;26;34009;-87
2022/05/16 02:15:15;;;;;;;;;;;;;;;19.49;43.92;99835.94;5382382;26;34755;-87
2022/05/16 02:17:44;;;;;;;;;;;;;;;19.29;43.72;99839.50;5382329;26;35666;-87
2022/05/16 02:20:13;;;;;;;;;;;;;;;19.60;42.65;99836.28;5381789;26;33461;-86
2022/05/16 02:25:30;;;;;;;;;;;;;;;19.62;43.03;99837.06;5387821;26;34600;-89
2022/05/16 02:27:58;;;;;;;;;;;;;;;19.54;42.89;99837.41;5384982;26;34510;-87
2022/05/16 02:30:27;;;;;;;;;;;;;;;19.58;42.97;99841.63;5381608;26;32980;-87
2022/05/16 02:32:56;;;;;;;;;;;;;;;19.53;43.26;99843.63;5383743;26;34148;-87
2022/05/16 02:35:25;;;;;;;;;;;;;;;19.53;42.91;99840.13;5381222;26;34234;-87
2022/05/16 02:37:58;;;;;;;;;;;;;;;19.48;43.06;99845.62;5382479;26;34849;-87
2022/05/16 02:40:27;;;;;;;;;;;;;;;19.48;42.90;99845.62;5387143;26;33693;-87
2022/05/16 02:42:57;;;;;;;;;;;;;;;19.39;43.25;99846.03;5382334;26;34336;-87
2022/05/16 02:45:25;;;;;;;;;;;;;;;19.33;43.57;99844.56;5381139;26;34120;-87
2022/05/16 02:47:54;;;;;;;;;;;;;;;19.26;43.85;99842.28;5378463;26;34524;-87
2022/05/16 02:50:23;;;;;;;;;;;;;;;19.28;43.59;99835.16;5376489;26;33292;-87
2022/05/16 02:52:51;;;;;;;;;;;;;;;19.33;43.51;99833.16;5380195;26;34510;-87
2022/05/16 02:55:20;;;;;;;;;;;;;;;19.24;44.15;99838.88;5380947;26;34388;-87
2022/05/16 02:57:51;;;;;;;;;;;;;;;19.11;44.29;99839.44;5381317;26;34767;-87
2022/05/16 03:00:21;;;;;;;;;;;;;;;19.13;44.20;99840.22;5379795;26;33472;-87
2022/05/16 03:02:50;;;;;;;;;;;;;;;19.10;44.03;99840.34;5380644;26;33615;-88
2022/05/16 03:05:19;;;;;;;;;;;;;;;19.08;43.83;99838.72;5387205;26;33740;-87
2022/05/16 03:07:49;;;;;;;;;;;;;;;19.01;43.82;99827.63;5382929;26;33119;-86
2022/05/16 03:10:18;;;;;;;;;;;;;;;19.07;43.93;99837.03;5381010;26;34121;-87
2022/05/16 03:12:46;;;;;;;;;;;;;;;19.01;44.01;99839.94;5381733;26;34118;-87
2022/05/16 03:15:16;;;;;;;;;;;;;;;18.91;44.20;99842.13;5380870;26;33945;-87
2022/05/16 03:17:47;;;;;;;;;;;;;;;18.68;44.90;99832.63;5381421;26;33773;-87
2022/05/16 03:20:16;;;;;;;;;;;;;;;18.85;44.61;99838.00;5387416;26;33104;-87
2022/05/16 03:22:44;;;;;;;;;;;;;;;18.93;44.71;99838.50;5382499;26;34989;-87
2022/05/16 03:25:13;;;;;;;;;;;;;;;18.71;44.95;99830.69;5381642;26;33862;-86
2022/05/16 03:27:42;;;;;;;;;;;;;;;19.08;43.57;99831.69;5381932;26;33891;-87
2022/05/16 03:30:11;;;;;;;;;;;;;;;19.21;43.50;99829.34;5381337;26;32927;-86
2022/05/16 03:32:40;;;;;;;;;;;;;;;19.25;43.88;99836.16;5387255;26;34058;-87
2022/05/16 03:35:10;;;;;;;;;;;;;;;19.25;44.20;99830.91;5380679;26;33859;-87
2022/05/16 03:37:38;;;;;;;;;;;;;;;19.04;44.88;99830.12;5381531;26;33495;-87
2022/05/16 03:42:53;;;;;;;;;;;;;;;19.36;44.06;99833.87;5381852;26;33553;-87
2022/05/16 03:45:22;;;;;;;;;;;;;;;19.18;44.09;99838.25;5380791;26;34868;-87
2022/05/16 03:47:50;;;;;;;;;;;;;;;19.12;43.95;99835.03;5387387;26;34491;-88
2022/05/16 03:50:21;;;;;;;;;;;;;;;19.01;43.91;99837.28;5381226;26;32625;-88
2022/05/16 03:52:49;;;;;;;;;;;;;;;18.95;43.35;99835.81;5381642;26;33320;-87
2022/05/16 03:55:18;;;;;;;;;;;;;;;19.13;43.39;99839.38;5381259;26;34239;-87
2022/05/16 03:57:47;;;;;;;;;;;;;;;19.07;43.66;99843.13;5381045;26;34392;-87
2022/05/16 04:00:16;;;;;;;;;;;;;;;19.19;43.52;99839.09;5386816;26;34123;-87
2022/05/16 04:02:45;;;;;;;;;;;;;;;19.08;43.89;99842.19;5380696;26;34088;-87
2022/05/16 04:05:16;;;;;;;;;;;;;;;19.27;43.80;99838.72;5381816;26;33783;-87
2022/05/16 04:07:47;;;;;;;;;;;;;;;19.46;43.14;99836.94;5380897;26;34173;-87
2022/05/16 04:10:15;;;;;;;;;;;;;;;19.51;42.88;99842.81;5381255;26;34210;-87
2022/05/16 04:12:44;;;;;;;;;;;;;;;19.48;42.70;99850.88;5387389;26;33609;-87
2022/05/16 04:15:13;;;;;;;;;;;;;;;19.56;42.67;99850.50;5380339;26;34174;-88
2022/05/16 04:17:42;;;;;;;;;;;;;;;19.60;41.93;99852.94;5381426;26;34794;-87
2022/05/16 04:20:11;;;;;;;;;;;;;;;19.47;42.03;99856.19;5381137;26;33170;-87
2022/05/16 04:22:40;;;;;;;;;;;;;;;19.72;41.61;99856.78;5380966;26;33859;-87
2022/05/16 04:25:11;;;;;;;;;;;;;;;19.93;41.49;99857.50;5388276;26;33862;-87
2022/05/16 04:27:42;;;;;;;;;;;;;;;20.06;41.37;99856.91;5387658;26;34696;-88
2022/05/16 04:30:12;;;;;;;;;;;;;;;20.21;41.09;99858.78;5381522;26;33259;-88
2022/05/16 04:32:40;;;;;;;;;;;;;;;19.79;40.89;99858.19;5382124;26;33698;-87
2022/05/16 04:35:12;;;;;;;;;;;;;;;20.10;40.66;99856.66;5382572;26;34329;-87
2022/05/16 04:37:40;;;;;;;;;;;;;;;20.13;40.68;99860.94;5382385;26;34286;-88
2022/05/16 04:40:11;;;;;;;;;;;;;;;20.33;40.30;99860.78;5387452;26;32861;-87
2022/05/16 04:42:42;;;;;;;;;;;;;;;20.22;40.54;99857.84;5381465;26;34217;-87
2022/05/16 04:45:13;;;;;;;;;;;;;;;20.18;40.38;99864.19;5382259;26;33952;-87
2022/05/16 04:47:42;;;;;;;;;;;;;;;20.15;40.47;99861.69;5382675;26;34541;-89
2022/05/16 04:50:12;;;;;;;;;;;;;;;20.27;40.24;99860.25;5382363;26;33326;-87
2022/05/16 04:52:40;;;;;;;;;;;;;;;20.40;40.19;99862.19;5387447;26;34403;-87
2022/05/16 04:55:11;;;;;;;;;;;;;;;20.80;39.16;99867.19;5382575;26;34237;-87
2022/05/16 04:57:39;;;;;;;;;;;;;;;21.02;38.30;99864.25;5362161;26;33845;-89
2022/05/16 05:00:14;;;;;;;;;;;;;;;21.36;37.44;99870.34;5382586;26;33160;-87
2022/05/16 05:02:43;;;;;;;;;;;;;;;21.43;36.97;99871.75;5382167;26;33733;-88
2022/05/16 05:05:12;;;;;;;;;;;;;;;21.52;36.76;99868.59;5382114;26;34938;-88
2022/05/16 05:07:41;;;;;;;;;;;;;;;22.17;34.74;99866.63;5387305;26;34629;-88
2022/05/16 05:15:45;;;;;;;;;;;;;;;22.95;33.73;99871.72;5382584;26;34125;-88
2022/05/16 05:18:13;;;;;;;;;;;;;;;22.94;33.62;99875.28;5362190;26;34183;-88
2022/05/16 05:20:42;;;;;;;;;;;;;;;23.00;33.69;99880.25;5383542;26;33011;-89
2022/05/16 05:23:10;;;;;;;;;;;;;;;23.36;32.78;99878.87;5387750;26;34218;-88
2022/05/16 05:25:44;;;;;;;;;;;;;;;23.29;32.81;99876.72;5381798;26;34698;-88
2022/05/16 05:28:12;;;;;;;;;;;;;;;23.56;32.49;99872.31;5381487;26;34262;-89
2022/05/16 05:30:41;;;;;;;;;;;;;;;23.58;32.69;99877.50;5381820;26;33785;-88
2022/05/16 05:33:09;;;;;;;;;;;;;;;23.09;33.15;99888.56;5382170;26;33839;-88
2022/05/16 05:35:38;;;;;;;;;;;;;;;22.51;33.67;99880.53;5388109;26;33831;-89
2022/05/16 05:38:09;;;;;;;;;;;;;;;21.92;34.62;99876.94;5385305;26;35424;-88
2022/05/16 05:40:38;;;;;;;;;;;;;;;21.90;35.32;99878.81;5383161;26;33549;-88
2022/05/16 05:43:08;;;;;;;;;;;;;;;21.97;35.18;99874.88;5381598;26;34886;-88
2022/05/16 05:45:37;;;;;;;;;;;;;;;22.15;34.91;99873.78;5382330;26;33804;-88
2022/05/16 05:48:06;;;;;;;;;;;;;;;22.42;34.93;99881.06;5381444;26;34911;-88
2022/05/16 05:50:34;;;;;;;;;;;;;;;23.05;33.95;99884.38;5386236;26;33920;-88
2022/05/16 05:53:03;;;;;;;;;;;;;;;23.37;33.20;99890.34;5380754;26;34267;-89
2022/05/16 05:55:31;;;;;;;;;;;;;;;23.54;32.69;99889.28;5382014;26;34071;-89
2022/05/16 05:58:00;;;;;;;;;;;;;;;23.47;31.97;99893.25;5381723;26;34502;-88
2022/05/16 06:00:30;;;;;;;;;;;;;;;23.51;31.96;99892.09;5381564;26;33135;-89
2022/05/16 06:03:00;;;;;;;;;;;;;;;23.27;32.42;99890.06;5386860;26;33855;-89
2022/05/16 06:05:29;;;;;;;;;;;;;;;23.77;31.47;99890.44;5381915;26;33723;-90
2022/05/16 06:07:57;;;;;;;;;;;;;;;23.73;31.19;99896.88;5380625;26;35004;-88
2022/05/16 06:10:26;;;;;;;;;;;;;;;23.40;31.03;99895.44;5380157;26;34029;-89
2022/05/16 06:12:59;;;;;;;;;;;;;;;22.91;32.10;99896.66;5382893;26;33250;-89
2022/05/16 06:15:27;;;;;;;;;;;;;;;22.25;32.62;99891.78;5387617;26;34386;-89
2022/05/16 06:17:57;;;;;;;;;;;;;;;22.58;31.39;99895.09;5381895;26;34414;-89
2022/05/16 06:20:27;;;;;;;;;;;;;;;22.80;31.48;99889.34;5381150;26;33363;-88
2022/05/16 06:22:56;;;;;;;;;;;;;;;22.54;32.85;99893.59;5382032;26;33002;-88
2022/05/16 06:25:33;;;;;;;;;;;;;;;22.62;32.62;99892.28;5381549;26;33440;-88
2022/05/16 06:28:05;;;;;;;;;;;;;;;22.90;31.91;99894.94;5387695;26;33887;-88
2022/05/16 06:30:34;;;;;;;;;;;;;;;22.86;31.68;99896.09;5382400;26;33526;-88
2022/05/16 06:33:04;;;;;;;;;;;;;;;22.72;31.87;99893.44;5382303;26;34160;-88
2022/05/16 06:35:33;;;;;;;;;;;;;;;22.60;32.35;99887.06;5382470;26;34515;-87
2022/05/16 06:38:06;;;;;;;;;;;;;;;22.82;32.45;99889.28;5381705;26;34040;-88
2022/05/16 06:40:34;;;;;;;;;;;;;;;23.00;32.22;99888.19;5384098;26;32856;-89
2022/05/16 06:43:04;;;;;;;;;;;;;;;22.45;32.16;99886.19;5387888;26;34061;-88
2022/05/16 06:45:33;;;;;;;;;;;;;;;22.74;31.78;99886.25;5381693;26;34066;-88
2022/05/16 06:48:03;;;;;;;;;;;;;;;22.76;32.71;99886.97;5376932;26;34911;-88
2022/05/16 06:50:33;;;;;;;;;;;;;;;23.00;32.71;99892.59;5380137;26;33648;-88
2022/05/16 06:53:03;;;;;;;;;;;;;;;22.86;32.64;99892.56;5386764;26;33692;-88
2022/05/16 06:55:31;;;;;;;;;;;;;;;23.25;32.30;99891.09;5382665;26;32985;-88
2022/05/16 06:58:00;;;;;;;;;;;;;;;23.23;31.86;99899.12;5381166;26;34160;-88
2022/05/16 07:00:28;;;;;;;;;;;;;;;23.24;31.50;99898.19;5381097;26;33791;-88
2022/05/16 07:02:59;;;;;;;;;;;;;;;23.43;31.53;99900.53;5382366;26;33852;-88
2022/05/16 07:05:51;;;;;;;;;;;;;;;23.01;32.15;99896.97;5381195;26;34930;-89
2022/05/16 07:08:20;;;;;;;;;;;;;;;23.16;32.40;99903.94;5386188;26;33392;-88
2022/05/16 07:10:49;;;;;;;;;;;;;;;22.56;32.98;99899.59;5379638;26;33007;-88
2022/05/16 07:13:23;;;;;;;;;;;;;;;23.05;32.75;99900.25;5379697;26;34836;-88
2022/05/16 07:15:52;;;;;;;;;;;;;;;23.52;32.58;99907.03;5379264;26;34096;-88
2022/05/16 07:18:20;;;;;;;;;;;;;;;23.60;32.74;99902.94;5379455;26;34116;-88
2022/05/16 07:20:51;;;;;;;;;;;;;;;23.64;32.38;99900.97;5385003;26;32595;-88
2022/05/16 07:23:19;;;;;;;;;;;;;;;23.63;31.33;99896.59;5379843;26;35225;-89
2022/05/16 07:28:34;;;;;;;;;;;;;;;23.64;31.55;99911.56;5382087;26;35028;-88
2022/05/16 07:31:02;;;;;;;;;;;;;;;23.71;31.40;99904.06;5381663;26;33494;-88
2022/05/16 07:33:31;;;;;;;;;;;;;;;24.00;31.08;99900.41;5381496;26;34489;-88
2022/05/16 07:36:01;;;;;;;;;;;;;;;23.96;31.67;99898.06;5387537;26;34315;-88
2022/05/16 07:38:29;;;;;;;;;;;;;;;23.94;31.05;99897.31;5381393;26;34445;-88
2022/05/16 07:40:58;;;;;;;;;;;;;;;24.18;30.53;99902.78;5381527;26;32982;-88
2022/05/16 07:43:27;;;;;;;;;;;;;;;24.49;30.22;99897.16;5381924;26;34669;-88
2022/05/16 07:45:55;;;;;;;;;;;;;;;24.49;29.53;99898.97;5381331;26;34103;-88
2022/05/16 07:48:24;;;;;;;;;;;;;;;24.30;29.48;99901.97;5387366;26;34786;-88
2022/05/16 07:50:52;;;;;;;;;;;;;;;24.11;29.93;99907.63;5381795;26;34087;-88
2022/05/16 07:53:22;;;;;;;;;;;;;;;24.44;28.42;99909.00;5381470;26;33927;-88
2022/05/16 07:55:54;;;;;;;;;;;;;;;24.27;28.91;99918.09;5381112;26;33618;-89
2022/05/16 07:58:23;;;;;;;;;;;;;;;24.81;29.49;99906.53;5381646;26;34197;-88
2022/05/16 08:00:55;;;;;;;;;;;;;;;25.24;29.06;99914.19;5363968;26;33378;-88
2022/05/16 08:03:25;;;;;;;;;;;;;;;25.06;28.40;99911.84;5388539;26;33587;-88
2022/05/16 08:05:53;;;;;;;;;;;;;;;25.01;28.03;99908.66;5382645;26;34889;-89
2022/05/16 08:11:11;;;;;;;;;;;;;;;24.76;27.37;99913.94;5383116;26;32761;-84
2022/05/16 08:13:41;;;;;;;;;;;;;;;25.38;27.10;99910.56;5382389;26;33718;-85
2022/05/16 08:16:10;;;;;;;;;;;;;;;25.31;27.13;99905.66;5388578;26;34079;-84
2022/05/16 08:18:39;;;;;;;;;;;;;;;25.50;27.25;99907.88;5381079;26;34617;-87
2022/05/16 08:21:10;;;;;;;;;;;;;;;25.43;27.62;99909.25;5381920;26;33504;-87
2022/05/16 08:23:40;;;;;;;;;;;;;;;25.41;28.21;99905.03;5381694;26;33453;-88
2022/05/16 08:26:10;;;;;;;;;;;;;;;25.54;28.10;99911.16;5381509;26;33678;-87
2022/05/16 08:28:39;;;;;;;;;;;;;;;25.52;27.80;99905.09;5381728;26;35920;-88
2022/05/16 08:31:08;;;;;;;;;;;;;;;25.70;27.06;99910.88;5387013;26;33687;-88
2022/05/16 08:33:37;;;;;;;;;;;;;;;25.29;27.32;99906.75;5380427;26;35007;-88
2022/05/16 08:41:43;;;;;;;;;;;;;;;25.31;27.56;99904.81;5380472;26;33111;-88
2022/05/16 08:44:13;;;;;;;;;;;;;;;25.47;26.98;99904.59;5380192;26;33688;-88
2022/05/16 08:46:46;;;;;;;;;;;;;;;25.36;28.13;99908.00;5385588;26;34086;-88
2022/05/16 08:49:17;;;;;;;;;;;;;;;25.79;27.26;99910.22;5380351;26;33894;-88
2022/05/16 08:51:47;;;;;;;;;;;;;;;26.16;28.01;99905.72;5379894;26;34107;-89
2022/05/16 08:54:19;;;;;;;;;;;;;;;26.30;26.43;99896.69;5379744;26;34438;-88
2022/05/16 08:56:48;;;;;;;;;;;;;;;26.20;26.93;99905.50;5379791;26;34909;-88
2022/05/16 08:59:18;;;;;;;;;;;;;;;26.56;27.41;99907.22;5379606;26;34845;-88
2022/05/16 09:01:51;;;;;;;;;;;;;;;26.65;26.68;99908.31;5385132;26;32937;-89
2022/05/16 09:04:23;;;;;;;;;;;;;;;26.83;25.24;99909.56;5380016;26;33960;-88
2022/05/16 09:06:54;;;;;;;;;;;;;;;26.38;25.99;99909.41;5379588;26;33961;-88
2022/05/16 09:09:26;;;;;;;;;;;;;;;26.54;26.56;99901.16;5379393;26;34204;-88
2022/05/16 09:11:56;;;;;;;;;;;;;;;27.15;26.50;99909.69;5379661;26;33065;-88
2022/05/16 09:14:35;;;;;;;;;;;;;;;27.34;25.88;99918.94;5384862;26;36140;-89
2022/05/16 09:17:04;;;;;;;;;;;;;;;27.30;25.63;99912.16;5385415;26;33622;-88
2022/05/16 09:19:41;;;;;;;;;;;;;;;27.43;25.47;99907.56;5382021;26;33498;-88
2022/05/16 09:22:11;;;;;;;;;;;;;;;26.74;26.16;99897.81;5379788;26;33054;-88
2022/05/16 09:24:42;;;;;;;;;;;;;;;27.16;25.91;99897.22;5379947;26;35282;-87
2022/05/16 09:27:12;;;;;;;;;;;;;;;27.10;26.63;99895.06;5379663;26;33920;-88
2022/05/16 09:29:45;;;;;;;;;;;;;;;27.36;25.92;99898.34;5385482;26;34748;-88
2022/05/16 09:32:14;;;;;;;;;;;;;;;26.39;26.14;99885.38;5379978;26;33381;-88
2022/05/16 09:34:43;;;;;;;;;;;;;;;26.79;26.04;99889.47;5379602;26;34212;-87
2022/05/16 09:37:12;;;;;;;;;;;;;;;27.47;25.60;99890.31;5380441;26;34222;-87
2022/05/16 09:39:48;;;;;;;;;;;;;;;27.31;25.37;99893.41;5379925;26;34863;-88
2022/05/16 09:42:17;;;;;;;;;;;;;;;27.34;26.12;99886.97;5379654;26;34077;-88
2022/05/16 09:44:48;;;;;;;;;;;;;;;27.06;26.06;99880.28;5385495;26;33994;-88
2022/05/16 09:47:19;;;;;;;;;;;;;;;26.77;26.69;99880.75;5380286;26;35070;-89
2022/05/16 09:49:59;;;;;;;;;;;;;;;26.68;26.43;99876.16;5380188;26;34016;-88
2022/05/16 09:52:27;;;;;;;;;;;;;;;26.98;26.28;99872.91;5361132;26;33057;-88
2022/05/16 09:55:00;;;;;;;;;;;;;;;27.18;25.78;99869.53;5348899;26;867447;-87
2022/05/16 10:00:16;;;;;;;;;;;;;;;27.02;26.90;99869.03;5383255;26;33944;-89
2022/05/16 10:02:45;;;;;;;;;;;;;;;27.15;26.29;99867.09;5378959;26;33114;-88
2022/05/16 10:05:23;;;;;;;;;;;;;;;26.85;26.44;99861.53;5378929;26;33808;-87
2022/05/16 10:07:53;;;;;;;;;;;;;;;27.20;25.79;99862.28;5378977;26;33877;-88
2022/05/16 10:10:25;;;;;;;;;;;;;;;27.69;26.76;99851.28;5377977;26;34745;-88
2022/05/16 10:12:55;;;;;;;;;;;;;;;27.97;25.64;99860.53;5378809;26;33128;-89
2022/05/16 10:15:23;;;;;;;;;;;;;;;27.93;25.83;99853.75;5385471;26;34492;-88
2022/05/16 10:17:54;;;;;;;;;;;;;;;28.18;25.63;99858.75;5382378;26;34380;-88
2022/05/16 10:20:24;;;;;;;;;;;;;;;28.39;25.21;99848.09;5381787;26;34118;-88
2022/05/16 10:22:53;;;;;;;;;;;;;;;28.60;24.98;99852.59;5382391;26;34016;-87
2022/05/16 10:25:44;;;;;;;;;;;;;;;28.75;24.34;99851.25;5380812;26;33884;-87
2022/05/16 10:28:15;;;;;;;;;;;;;;;28.69;24.23;99849.13;5381263;26;33844;-88
2022/05/16 10:33:30;;;;;;;;;;;;;;;28.90;24.52;99855.28;5380558;26;33669;-88
2022/05/16 10:36:00;;;;;;;;;;;;;;;28.68;25.40;99850.97;5380325;26;33698;-88
2022/05/16 10:38:38;;;;;;;;;;;;;;;28.87;23.95;99849.34;5380238;26;33299;-88
2022/05/16 10:41:10;;;;;;;;;;;;;;;29.19;25.10;99840.34;5379956;26;33690;-88
2022/05/16 10:43:49;;;;;;;;;;;;;;;29.06;24.40;99848.59;5380583;26;33395;-88
2022/05/16 10:46:20;;;;;;;;;;;;;;;29.11;25.04;99855.22;5385922;26;34254;-88
2022/05/16 10:48:54;;;;;;;;;;;;;;;29.27;24.44;99844.06;5380741;26;34351;-87
2022/05/16 10:51:25;;;;;;;;;;;;;;;29.03;23.19;99849.69;5380887;26;34920;-88
2022/05/16 10:53:57;;;;;;;;;;;;;;;29.01;23.71;99837.47;5380788;26;32517;-87
2022/05/16 10:56:37;;;;;;;;;;;;;;;29.16;23.99;99836.13;5380864;26;34416;-88
2022/05/16 10:59:08;;;;;;;;;;;;;;;29.50;23.79;99841.13;5380401;26;35304;-88
2022/05/16 11:01:46;;;;;;;;;;;;;;;29.56;23.45;99830.75;5385888;26;33820;-88
2022/05/16 11:04:29;;;;;;;;;;;;;;;29.87;22.73;99836.00;5380421;26;32831;-88
2022/05/16 11:07:06;;;;;;;;;;;;;;;29.72;23.04;99832.03;5379843;26;33986;-88
2022/05/16 11:09:38;;;;;;;;;;;;;;;30.16;21.66;99833.31;5380128;26;35724;-87
2022/05/16 11:12:12;;;;;;;;;;;;;;;29.73;22.92;99826.56;5379869;26;34869;-87
2022/05/16 11:14:46;;;;;;;;;;;;;;;29.70;22.41;99824.19;5380048;26;34065;-87
2022/05/16 11:17:17;;;;;;;;;;;;;;;30.06;23.02;99823.59;5360650;26;33215;-87
2022/05/16 11:19:46;;;;;;;;;;;;;;;30.35;21.44;99820.94;5385912;26;34282;-87
2022/05/16 11:22:16;;;;;;;;;;;;;;;29.51;23.07;99818.78;5380084;26;33549;-87
2022/05/16 11:24:47;;;;;;;;;;;;;;;30.28;21.42;99817.16;5380427;26;33102;-87
2022/05/16 11:27:20;;;;;;;;;;;;;;;30.28;22.14;99819.81;5380521;26;33945;-87
2022/05/16 11:29:51;;;;;;;;;;;;;;;30.66;21.72;99818.84;5379906;26;34305;-87
2022/05/16 11:32:27;;;;;;;;;;;;;;;30.83;21.45;99819.94;5386656;26;34346;-87
2022/05/16 11:35:01;;;;;;;;;;;;;;;30.77;21.34;99809.78;5385543;26;33034;-87
2022/05/16 11:37:33;;;;;;;;;;;;;;;31.06;21.10;99808.84;5381003;26;34482;-87
2022/05/16 11:40:04;;;;;;;;;;;;;;;31.00;21.51;99804.91;5380670;26;33571;-87
2022/05/16 11:42:35;;;;;;;;;;;;;;;31.34;20.88;99802.47;5380550;26;34194;-87
2022/05/16 11:45:09;;;;;;;;;;;;;;;31.76;20.04;99796.53;5380804;26;33201;-87
2022/05/16 11:47:40;;;;;;;;;;;;;;;30.96;20.94;99790.97;5385562;26;33336;-87
2022/05/16 11:50:31;;;;;;;;;;;;;;;30.92;21.06;99783.38;5386740;26;33836;-87
2022/05/16 11:53:06;;;;;;;;;;;;;;;31.21;22.18;99785.91;5381564;26;34268;-87
2022/05/16 12:01:25;;;;;;;;;;;;;;;31.80;21.47;99780.97;5381048;26;35057;-86
2022/05/16 12:04:03;;;;;;;;;;;;;;;32.06;20.26;99781.03;5360639;26;33215;-86
2022/05/16 12:06:33;;;;;;;;;;;;;;;32.65;21.20;99781.28;5378544;26;32807;-87
2022/05/16 12:09:19;;;;;;;;;;;;;;;32.53;19.54;99778.03;5384305;26;33401;-86
2022/05/16 12:11:51;;;;;;;;;;;;;;;32.38;20.36;99768.81;5383532;26;34602;-87
2022/05/16 12:14:32;;;;;;;;;;;;;;;32.18;20.98;99769.03;5379691;26;33877;-86
2022/05/16 12:17:02;;;;;;;;;;;;;;;32.38;20.82;99763.44;5378208;26;33397;-87
2022/05/16 12:19:34;;;;;;;;;;;;;;;33.16;20.28;99766.03;5380575;26;34289;-87
2022/05/16 12:22:04;;;;;;;;;;;;;;;33.45;19.72;99764.75;5380781;26;34027;-88
2022/05/16 12:24:44;;;;;;;;;;;;;;;33.53;20.39;99753.97;5386164;26;34168;-87
2022/05/16 12:27:26;;;;;;;;;;;;;;;33.83;20.97;99752.53;5384830;26;33221;-88
2022/05/16 12:29:57;;;;;;;;;;;;;;;33.75;19.97;99747.13;5380578;26;34498;-87
2022/05/16 12:32:44;;;;;;;;;;;;;;;33.89;18.79;99748.31;5380583;26;34537;-87
2022/05/16 12:35:14;;;;;;;;;;;;;;;33.93;19.21;99742.41;5366443;26;33943;-87
2022/05/16 12:37:42;;;;;;;;;;;;;;;33.78;19.46;99730.62;5379951;26;33796;-87
2022/05/16 12:40:14;;;;;;;;;;;;;;;33.80;19.51;99728.63;5380609;26;34855;-88
2022/05/16 12:43:07;;;;;;;;;;;;;;;33.74;19.56;99724.75;5384145;26;34527;-87
2022/05/16 12:46:10;;;;;;;;;;;;;;;33.46;19.61;99724.22;5386117;26;34596;-87
2022/05/16 12:49:00;;;;;;;;;;;;;;;34.06;19.48;99716.81;5293205;27;34122;-87
2022/05/16 12:51:39;;;;;;;;;;;;;;;34.11;19.21;99709.94;5288506;27;34094;-88
2022/05/16 12:54:36;;;;;;;;;;;;;;;34.31;18.68;99707.72;5287287;27;32831;-88
2022/05/16 12:57:06;;;;;;;;;;;;;;;34.33;19.21;99694.88;5287537;27;33711;-87
2022/05/16 12:59:38;;;;;;;;;;;;;;;34.03;20.05;99695.63;5287374;27;33624;-87
2022/05/16 13:02:08;;;;;;;;;;;;;;;33.52;20.12;99687.75;5287931;27;33996;-87
2022/05/16 13:04:41;;;;;;;;;;;;;;;33.54;20.09;99686.59;5287822;27;34891;-88
2022/05/16 13:07:13;;;;;;;;;;;;;;;34.35;19.15;99675.88;5294323;27;34753;-87
2022/05/16 13:09:43;;;;;;;;;;;;;;;34.10;20.43;99672.44;5285749;27;32936;-87
2022/05/16 13:12:16;;;;;;;;;;;;;;;34.04;19.99;99676.59;5288132;27;34255;-87
2022/05/16 13:14:47;;;;;;;;;;;;;;;34.73;18.86;99676.91;5287926;27;35273;-88
2022/05/16 13:17:30;;;;;;;;;;;;;;;35.17;18.37;99683.56;5285321;27;33758;-87
2022/05/16 13:20:00;;;;;;;;;;;;;;;35.08;18.51;99674.66;5342230;26;32838;-87
2022/05/16 13:22:30;;;;;;;;;;;;;;;34.60;18.84;99674.78;5384704;26;33986;-87
2022/05/16 13:24:58;;;;;;;;;;;;;;;34.49;19.68;99671.59;5379089;26;34307;-88
2022/05/16 13:30:18;;;;;;;;;;;;;;;34.12;19.76;99673.06;5378147;26;33544;-88
2022/05/16 13:32:47;;;;;;;;;;;;;;;34.71;18.83;99673.53;5380093;26;34627;-87
2022/05/16 13:35:28;;;;;;;;;;;;;;;35.25;18.25;99670.88;5379992;26;34781;-88
2022/05/16 13:37:58;;;;;;;;;;;;;;;35.61;17.85;99667.53;5385963;26;34695;-88
2022/05/16 13:40:27;;;;;;;;;;;;;;;35.78;18.10;99665.50;5377376;26;33225;-88
2022/05/16 13:42:56;;;;;;;;;;;;;;;35.61;18.91;99658.59;5379757;26;34873;-88
2022/05/16 13:45:26;;;;;;;;;;;;;;;35.00;18.49;99664.75;5379977;26;33307;-89
2022/05/16 13:48:03;;;;;;;;;;;;;;;35.24;17.92;99662.94;5378712;26;33973;-89
2022/05/16 13:50:34;;;;;;;;;;;;;;;35.54;18.18;99646.84;5385082;26;32564;-88